Time;durP1;ratioP1;P1;durP2;ratioP2;P2;SDS_P1;SDS_P2;PMS_P1;PMS_P2;Temp;Humidity;BMP_temperature;BMP_pressure;BME280_temperature;BME280_humidity;BME280_pressure;Samples;Min_cycle;Max_cycle;Signal;HPM_P1;HPM_P2
2022/09/17 00:01:08;;;;;;;28.90;3.17;;;;;;;;;;4944785;28;20496;-90
2022/09/17 00:03:35;;;;;;;34.17;3.63;;;;;;;;;;4927671;28;20023;-91
2022/09/17 00:06:05;;;;;;;17.88;3.17;;;;;;;;;;4930950;28;20487;-89
2022/09/17 00:08:32;;;;;;;10.75;2.22;;;;;;;;;;4944844;28;20038;-90
2022/09/17 00:10:58;;;;;;;20.02;2.83;;;;;;;;;;4931718;28;20065;-91
2022/09/17 00:13:24;;;;;;;21.77;2.58;;;;;;;;;;4931542;29;20055;-90
2022/09/17 00:15:51;;;;;;;18.42;2.47;;;;;;;;;;4918308;29;20458;-89
2022/09/17 00:18:17;;;;;;;14.20;2.67;;;;;;;;;;4910990;28;20031;-90
2022/09/17 00:20:45;;;;;;;29.02;3.95;;;;;;;;;;4946390;28;20035;-90
2022/09/17 00:23:14;;;;;;;32.15;3.53;;;;;;;;;;4925553;29;20027;-90
2022/09/17 00:25:41;;;;;;;26.23;3.20;;;;;;;;;;4931814;29;20479;-90
2022/09/17 00:28:07;;;;;;;16.70;2.47;;;;;;;;;;4931916;29;20027;-91
2022/09/17 00:30:33;;;;;;;13.63;2.35;;;;;;;;;;4933261;28;20513;-91
2022/09/17 00:32:59;;;;;;;15.60;1.75;;;;;;;;;;4932508;29;20034;-91
2022/09/17 00:35:26;;;;;;;14.38;2.20;;;;;;;;;;4934923;28;20042;-91
2022/09/17 00:37:52;;;;;;;26.65;1.98;;;;;;;;;;4929058;28;20498;-91
2022/09/17 00:40:18;;;;;;;12.55;2.35;;;;;;;;;;4932234;28;20276;-90
2022/09/17 00:42:44;;;;;;;20.88;2.80;;;;;;;;;;4938799;29;20178;-90
2022/09/17 00:45:11;;;;;;;35.38;2.92;;;;;;;;;;4915419;28;20166;-90
2022/09/17 00:47:58;;;;;;;14.98;2.63;;;;;;;;;;4931857;29;20055;-90
2022/09/17 00:50:33;;;;;;;18.00;2.50;;;;;;;;;;4932952;29;20451;-90
2022/09/17 00:53:04;;;;;;;17.43;2.77;;;;;;;;;;4931850;28;20031;-90
2022/09/17 00:55:35;;;;;;;22.13;3.78;;;;;;;;;;4931617;29;20279;-90
2022/09/17 00:58:02;;;;;;;30.50;4.03;;;;;;;;;;4950143;28;20035;-91
2022/09/17 01:00:29;;;;;;;17.58;2.47;;;;;;;;;;4931899;28;20034;-90
2022/09/17 01:03:02;;;;;;;22.58;2.72;;;;;;;;;;4914961;28;20436;-90
2022/09/17 01:05:38;;;;;;;37.72;4.13;;;;;;;;;;4906521;29;20072;-90
2022/09/17 01:08:07;;;;;;;33.27;3.50;;;;;;;;;;4908022;29;20036;-90
2022/09/17 01:10:45;;;;;;;24.13;2.95;;;;;;;;;;4891640;29;20307;-90
2022/09/17 01:13:29;;;;;;;27.52;3.08;;;;;;;;;;4909426;29;20553;-90
2022/09/17 01:16:05;;;;;;;21.90;3.00;;;;;;;;;;4912491;29;20461;-90
2022/09/17 01:18:46;;;;;;;44.45;2.97;;;;;;;;;;4911044;29;20032;-90
2022/09/17 01:21:36;;;;;;;22.45;3.03;;;;;;;;;;4907535;29;20049;-91
2022/09/17 01:24:11;;;;;;;30.27;2.97;;;;;;;;;;4890863;29;20374;-90
2022/09/17 01:26:49;;;;;;;18.08;3.08;;;;;;;;;;4906582;29;20032;-90
2022/09/17 01:29:35;;;;;;;15.15;2.67;;;;;;;;;;4891585;29;20040;-91
2022/09/17 01:32:04;;;;;;;29.45;3.13;;;;;;;;;;4893542;29;20123;-90
2022/09/17 01:34:33;;;;;;;32.15;3.92;;;;;;;;;;4910960;29;20072;-90
2022/09/17 01:37:25;;;;;;;31.10;3.33;;;;;;;;;;4896231;29;20040;-90
2022/09/17 01:39:56;;;;;;;27.88;3.03;;;;;;;;;;4902990;29;20052;-90
2022/09/17 01:42:26;;;;;;;18.05;3.05;;;;;;;;;;4908482;29;20047;-90
2022/09/17 01:45:00;;;;;;;24.25;2.92;;;;;;;;;;4898570;29;20036;-90
2022/09/17 01:47:26;;;;;;;29.33;2.53;;;;;;;;;;4890410;29;20024;-89
2022/09/17 01:49:55;;;;;;;32.58;3.45;;;;;;;;;;4903675;29;20032;-90
2022/09/17 01:52:21;;;;;;;31.45;3.20;;;;;;;;;;4909672;29;20042;-89
2022/09/17 01:54:50;;;;;;;22.17;3.38;;;;;;;;;;4891525;29;20691;-90
2022/09/17 01:57:22;;;;;;;29.17;3.35;;;;;;;;;;4907033;29;20068;-90
2022/09/17 01:59:52;;;;;;;24.80;2.88;;;;;;;;;;4887551;29;20058;-90
2022/09/17 02:02:23;;;;;;;16.15;3.13;;;;;;;;;;4916510;28;20133;-90
2022/09/17 02:04:54;;;;;;;28.92;3.47;;;;;;;;;;4943660;28;20054;-90
2022/09/17 02:07:22;;;;;;;25.05;3.25;;;;;;;;;;4942357;28;20031;-90
2022/09/17 02:09:54;;;;;;;34.72;3.53;;;;;;;;;;4926276;29;20158;-90
2022/09/17 02:12:24;;;;;;;27.88;2.70;;;;;;;;;;4946859;28;20268;-90
2022/09/17 02:14:51;;;;;;;22.17;2.97;;;;;;;;;;4925311;29;20031;-90
2022/09/17 02:17:24;;;;;;;28.83;3.28;;;;;;;;;;4933582;29;20117;-90
2022/09/17 02:19:52;;;;;;;15.73;2.25;;;;;;;;;;4938719;28;20327;-90
2022/09/17 02:22:21;;;;;;;25.00;2.42;;;;;;;;;;4927885;28;20038;-90
2022/09/17 02:24:53;;;;;;;15.32;2.15;;;;;;;;;;4928665;29;20566;-89
2022/09/17 02:27:26;;;;;;;18.10;2.58;;;;;;;;;;4944584;28;20171;-90
2022/09/17 02:29:52;;;;;;;28.50;2.53;;;;;;;;;;4923894;29;20507;-90
2022/09/17 02:32:18;;;;;;;27.08;3.10;;;;;;;;;;4923703;28;20094;-90
2022/09/17 02:34:46;;;;;;;19.17;2.58;;;;;;;;;;4929649;29;20575;-90
2022/09/17 02:37:12;;;;;;;21.60;2.38;;;;;;;;;;4913464;29;20043;-89
2022/09/17 02:39:38;;;;;;;22.85;2.35;;;;;;;;;;4926837;28;20043;-89
2022/09/17 02:42:07;;;;;;;22.67;2.05;;;;;;;;;;4912528;29;20570;-89
2022/09/17 02:44:45;;;;;;;23.35;2.55;;;;;;;;;;4924088;29;20039;-90
2022/09/17 02:47:19;;;;;;;21.00;2.38;;;;;;;;;;4941418;28;20569;-90
2022/09/17 02:49:59;;;;;;;13.40;2.40;;;;;;;;;;4929496;28;20031;-90
2022/09/17 02:52:38;;;;;;;29.20;3.15;;;;;;;;;;4939536;28;20042;-89
2022/09/17 02:55:10;;;;;;;19.50;2.15;;;;;;;;;;4945408;28;20031;-90
2022/09/17 02:57:45;;;;;;;20.42;2.28;;;;;;;;;;4925159;28;20507;-89
2022/09/17 03:00:14;;;;;;;17.83;2.55;;;;;;;;;;4926673;29;20483;-89
2022/09/17 03:02:55;;;;;;;22.52;3.03;;;;;;;;;;4903405;28;20139;-90
2022/09/17 03:05:29;;;;;;;14.68;2.40;;;;;;;;;;4906766;29;20020;-89
2022/09/17 03:07:56;;;;;;;20.63;2.63;;;;;;;;;;4885894;29;20506;-90
2022/09/17 03:10:22;;;;;;;24.63;2.78;;;;;;;;;;4905590;29;20030;-89
2022/09/17 03:12:48;;;;;;;18.95;2.72;;;;;;;;;;4888289;29;20099;-89
2022/09/17 03:15:14;;;;;;;14.23;2.72;;;;;;;;;;4873530;29;20147;-89
2022/09/17 03:17:40;;;;;;;20.38;2.30;;;;;;;;;;4874241;29;20270;-89
2022/09/17 03:20:07;;;;;;;14.90;2.63;;;;;;;;;;4891684;29;20044;-89
2022/09/17 03:22:34;;;;;;;20.58;2.85;;;;;;;;;;4889784;29;20033;-90
2022/09/17 03:25:00;;;;;;;28.02;2.75;;;;;;;;;;4875244;29;20234;-89
2022/09/17 03:27:26;;;;;;;30.15;2.78;;;;;;;;;;4888517;29;20028;-89
2022/09/17 03:29:52;;;;;;;22.20;2.72;;;;;;;;;;4879657;29;20043;-89
2022/09/17 03:32:18;;;;;;;20.20;2.65;;;;;;;;;;4878261;29;20035;-90
2022/09/17 03:34:45;;;;;;;12.18;2.65;;;;;;;;;;4875853;29;20036;-90
2022/09/17 03:37:11;;;;;;;21.73;2.47;;;;;;;;;;4871296;29;20047;-90
2022/09/17 03:39:41;;;;;;;17.27;2.00;;;;;;;;;;4900265;29;20055;-90
2022/09/17 03:42:07;;;;;;;18.50;3.03;;;;;;;;;;4886337;29;20726;-90
2022/09/17 03:44:33;;;;;;;14.45;2.10;;;;;;;;;;4875260;29;20132;-90
2022/09/17 03:46:59;;;;;;;14.90;2.15;;;;;;;;;;4901849;29;20033;-90
2022/09/17 03:49:25;;;;;;;12.88;2.10;;;;;;;;;;4889279;29;20046;-89
2022/09/17 03:51:51;;;;;;;18.15;2.00;;;;;;;;;;4905925;29;20036;-89
2022/09/17 03:54:17;;;;;;;11.85;3.38;;;;;;;;;;4889322;29;21458;-89
2022/09/17 03:56:43;;;;;;;19.45;2.15;;;;;;;;;;4893387;29;20048;-89
2022/09/17 03:59:09;;;;;;;18.85;2.03;;;;;;;;;;4890556;29;20088;-90
2022/09/17 04:01:35;;;;;;;22.80;2.30;;;;;;;;;;4888661;28;20062;-89
2022/09/17 04:04:02;;;;;;;12.68;1.60;;;;;;;;;;4928645;28;20031;-89
2022/09/17 04:06:28;;;;;;;15.00;2.20;;;;;;;;;;4930782;29;20054;-89
2022/09/17 04:08:55;;;;;;;12.63;2.45;;;;;;;;;;4941001;28;20078;-90
2022/09/17 04:11:21;;;;;;;23.42;3.00;;;;;;;;;;4932756;29;20038;-90
2022/09/17 04:13:47;;;;;;;18.17;2.13;;;;;;;;;;4913057;28;20714;-90
2022/09/17 04:16:13;;;;;;;26.95;2.63;;;;;;;;;;4932099;29;20162;-89
2022/09/17 04:18:39;;;;;;;26.25;2.30;;;;;;;;;;4945997;28;20031;-88
2022/09/17 04:21:06;;;;;;;16.50;1.52;;;;;;;;;;4927832;29;20047;-89
2022/09/17 04:23:32;;;;;;;14.25;2.40;;;;;;;;;;4926734;28;20088;-89
2022/09/17 04:25:58;;;;;;;21.15;2.42;;;;;;;;;;4915191;28;20035;-89
2022/09/17 04:28:24;;;;;;;17.00;2.15;;;;;;;;;;4930122;28;20086;-89
2022/09/17 04:30:50;;;;;;;14.95;2.28;;;;;;;;;;4928490;29;20031;-89
2022/09/17 04:33:16;;;;;;;20.75;2.50;;;;;;;;;;4926989;28;20046;-89
2022/09/17 04:35:42;;;;;;;16.00;2.15;;;;;;;;;;4916004;29;20039;-89
2022/09/17 04:38:08;;;;;;;15.77;2.13;;;;;;;;;;4913886;28;20321;-88
2022/09/17 04:40:35;;;;;;;17.38;2.33;;;;;;;;;;4913762;29;20124;-89
2022/09/17 04:43:02;;;;;;;17.80;2.20;;;;;;;;;;4927195;28;20046;-89
2022/09/17 04:45:29;;;;;;;16.67;2.15;;;;;;;;;;4910076;28;20228;-90
2022/09/17 04:47:55;;;;;;;13.95;2.00;;;;;;;;;;4927380;28;20078;-89
2022/09/17 04:50:21;;;;;;;15.82;2.92;;;;;;;;;;4941993;28;20755;-89
2022/09/17 04:52:51;;;;;;;23.25;2.15;;;;;;;;;;4911575;29;20136;-89
2022/09/17 04:55:17;;;;;;;19.13;2.10;;;;;;;;;;4944306;28;20039;-89
2022/09/17 04:57:50;;;;;;;27.65;3.40;;;;;;;;;;4940013;28;20074;-89
2022/09/17 05:00:17;;;;;;;6.32;2.13;;;;;;;;;;4943264;28;20024;-89
2022/09/17 05:02:44;;;;;;;11.00;2.03;;;;;;;;;;4904787;28;20065;-89
2022/09/17 05:05:10;;;;;;;16.42;2.60;;;;;;;;;;4920331;29;20614;-89
2022/09/17 05:07:40;;;;;;;14.18;2.63;;;;;;;;;;4891738;29;20439;-89
2022/09/17 05:10:06;;;;;;;11.80;2.13;;;;;;;;;;4902189;29;20036;-89
2022/09/17 05:12:32;;;;;;;21.80;2.63;;;;;;;;;;4896182;29;20032;-89
2022/09/17 05:14:58;;;;;;;21.52;2.33;;;;;;;;;;4893994;29;20576;-89
2022/09/17 05:17:24;;;;;;;18.60;2.30;;;;;;;;;;4893007;29;20123;-89
2022/09/17 05:19:52;;;;;;;14.68;1.98;;;;;;;;;;4876854;29;20047;-89
2022/09/17 05:22:18;;;;;;;17.05;1.92;;;;;;;;;;4892469;29;20029;-89
2022/09/17 05:24:44;;;;;;;25.08;4.43;;;;;;;;;;4917781;29;20032;-89
2022/09/17 05:27:10;;;;;;;20.52;2.55;;;;;;;;;;4907590;29;20036;-89
2022/09/17 05:29:36;;;;;;;32.20;2.60;;;;;;;;;;4894123;29;20343;-88
2022/09/17 05:32:03;;;;;;;34.63;3.38;;;;;;;;;;4914749;29;20020;-89
2022/09/17 05:34:29;;;;;;;16.23;2.67;;;;;;;;;;4904778;29;20044;-89
2022/09/17 05:36:55;;;;;;;31.33;2.35;;;;;;;;;;4912933;29;20035;-89
2022/09/17 05:39:24;;;;;;;13.70;1.98;;;;;;;;;;4899776;29;20040;-89
2022/09/17 05:41:51;;;;;;;8.77;1.75;;;;;;;;;;4907982;29;20048;-89
2022/09/17 05:44:17;;;;;;;12.43;2.47;;;;;;;;;;4875441;29;20075;-89
2022/09/17 05:46:50;;;;;;;21.77;2.40;;;;;;;;;;4920445;29;20067;-89
2022/09/17 05:49:16;;;;;;;14.88;3.05;;;;;;;;;;4890897;29;20033;-90
2022/09/17 05:51:42;;;;;;;22.67;2.58;;;;;;;;;;4889058;29;20032;-90
2022/09/17 05:54:08;;;;;;;29.17;2.58;;;;;;;;;;4875283;29;20046;-90
2022/09/17 05:56:34;;;;;;;25.70;2.55;;;;;;;;;;4910436;29;20047;-90
2022/09/17 05:59:00;;;;;;;13.43;3.10;;;;;;;;;;4883983;29;20520;-90
2022/09/17 06:01:27;;;;;;;15.32;2.60;;;;;;;;;;4909556;29;20015;-90
2022/09/17 06:03:53;;;;;;;16.08;2.10;;;;;;;;;;4928544;28;20171;-91
2022/09/17 06:06:19;;;;;;;20.23;2.25;;;;;;;;;;4928827;29;20054;-90
2022/09/17 06:08:45;;;;;;;12.30;1.90;;;;;;;;;;4911013;29;20035;-90
2022/09/17 06:11:11;;;;;;;11.38;2.30;;;;;;;;;;4914111;29;20185;-89
2022/09/17 06:13:44;;;;;;;18.55;2.35;;;;;;;;;;4944249;28;20085;-89
2022/09/17 06:16:10;;;;;;;8.85;2.20;;;;;;;;;;4928707;28;20196;-89
2022/09/17 06:18:36;;;;;;;8.60;1.65;;;;;;;;;;4915719;28;20082;-90
2022/09/17 06:21:04;;;;;;;15.20;2.10;;;;;;;;;;4929600;29;20031;-89
2022/09/17 06:23:34;;;;;;;12.68;1.63;;;;;;;;;;4924884;28;20038;-89
2022/09/17 06:26:01;;;;;;;8.73;1.73;;;;;;;;;;4927151;28;20098;-90
2022/09/17 06:28:27;;;;;;;19.08;1.88;;;;;;;;;;4930319;29;20483;-89
2022/09/17 06:30:55;;;;;;;16.00;2.25;;;;;;;;;;4925157;29;20043;-89
2022/09/17 06:33:22;;;;;;;15.30;3.00;;;;;;;;;;4926687;29;20074;-89
2022/09/17 06:35:48;;;;;;;22.50;5.22;;;;;;;;;;4930012;29;20050;-89
2022/09/17 06:38:14;;;;;;;21.27;2.88;;;;;;;;;;4941655;28;20162;-89
2022/09/17 06:40:46;;;;;;;16.48;3.58;;;;;;;;;;4924383;29;20031;-90
2022/09/17 06:43:12;;;;;;;10.70;2.30;;;;;;;;;;4924619;28;20170;-90
2022/09/17 06:45:38;;;;;;;4.70;1.23;;;;;;;;;;4910133;29;20134;-89
2022/09/17 06:48:04;;;;;;;12.48;2.20;;;;;;;;;;4912635;29;20508;-89
2022/09/17 06:50:30;;;;;;;10.55;2.03;;;;;;;;;;4925743;29;20088;-90
2022/09/17 06:52:56;;;;;;;5.30;1.23;;;;;;;;;;4911762;28;20081;-89
2022/09/17 06:55:23;;;;;;;9.07;1.50;;;;;;;;;;4921362;28;20042;-90
2022/09/17 06:57:49;;;;;;;8.57;1.15;;;;;;;;;;4921197;29;20050;-90
2022/09/17 07:00:15;;;;;;;11.40;1.83;;;;;;;;;;4909327;29;20032;-90
2022/09/17 07:02:41;;;;;;;11.73;1.63;;;;;;;;;;4926719;28;20064;-90
2022/09/17 07:05:07;;;;;;;17.08;1.90;;;;;;;;;;4921862;29;20067;-90
2022/09/17 07:07:34;;;;;;;12.00;2.08;;;;;;;;;;4917070;28;20031;-90
2022/09/17 07:10:01;;;;;;;13.68;2.72;;;;;;;;;;4922905;29;20031;-90
2022/09/17 07:12:30;;;;;;;15.93;2.03;;;;;;;;;;4910300;29;20032;-89
2022/09/17 07:14:56;;;;;;;17.83;2.35;;;;;;;;;;4924724;29;20091;-89
2022/09/17 07:17:22;;;;;;;9.27;1.70;;;;;;;;;;4912063;29;20051;-89
2022/09/17 07:19:48;;;;;;;29.30;3.25;;;;;;;;;;4909750;29;20039;-88
2022/09/17 07:22:14;;;;;;;14.68;2.42;;;;;;;;;;4909015;29;20048;-89
2022/09/17 07:24:40;;;;;;;15.10;2.55;;;;;;;;;;4908411;29;20734;-89
2022/09/17 07:27:06;;;;;;;10.35;2.38;;;;;;;;;;4926338;29;20040;-88
2022/09/17 07:29:32;;;;;;;15.48;2.22;;;;;;;;;;4913439;29;20032;-88
2022/09/17 07:31:58;;;;;;;8.20;1.95;;;;;;;;;;4917353;29;20103;-89
2022/09/17 07:34:27;;;;;;;18.33;1.70;;;;;;;;;;4929666;29;20044;-89
2022/09/17 07:36:53;;;;;;;10.98;2.38;;;;;;;;;;4924229;29;20036;-89
2022/09/17 07:39:19;;;;;;;7.90;1.80;;;;;;;;;;4928330;29;20042;-89
2022/09/17 07:41:45;;;;;;;13.93;1.88;;;;;;;;;;4925027;29;20032;-89
2022/09/17 07:44:11;;;;;;;11.02;1.98;;;;;;;;;;4916294;29;20062;-89
2022/09/17 07:46:37;;;;;;;13.45;2.03;;;;;;;;;;4910851;29;20071;-89
2022/09/17 07:49:03;;;;;;;5.57;1.60;;;;;;;;;;4912605;29;20075;-89
2022/09/17 07:51:29;;;;;;;8.13;1.10;;;;;;;;;;4927004;29;20039;-89
2022/09/17 07:53:56;;;;;;;9.48;1.67;;;;;;;;;;4913140;29;20482;-89
2022/09/17 07:56:26;;;;;;;13.85;1.67;;;;;;;;;;4929762;29;20027;-89
2022/09/17 07:58:52;;;;;;;12.73;1.83;;;;;;;;;;4926264;29;20031;-89
2022/09/17 08:01:22;;;;;;;15.60;2.35;;;;;;;;;;4924799;29;20502;-89
2022/09/17 08:03:50;;;;;;;10.10;1.40;;;;;;;;;;4926496;28;20058;-88
2022/09/17 08:06:17;;;;;;;6.07;0.90;;;;;;;;;;4940065;28;20540;-90
2022/09/17 08:08:43;;;;;;;6.25;1.30;;;;;;;;;;4941050;28;20040;-89
2022/09/17 08:11:11;;;;;;;9.93;1.50;;;;;;;;;;4926685;29;20032;-89
2022/09/17 08:13:37;;;;;;;6.78;1.73;;;;;;;;;;4924916;29;20484;-89
2022/09/17 08:16:05;;;;;;;7.95;1.60;;;;;;;;;;4926973;29;20044;-90
2022/09/17 08:18:31;;;;;;;11.10;1.70;;;;;;;;;;4942028;28;20456;-89
2022/09/17 08:21:00;;;;;;;8.45;1.58;;;;;;;;;;4925090;29;20456;-89
2022/09/17 08:23:27;;;;;;;17.30;1.80;;;;;;;;;;4923757;29;20563;-89
2022/09/17 08:25:54;;;;;;;11.57;1.60;;;;;;;;;;4927437;29;20031;-89
2022/09/17 08:28:20;;;;;;;7.72;1.88;;;;;;;;;;4925268;29;20036;-90
2022/09/17 08:30:47;;;;;;;30.10;1.90;;;;;;;;;;4892854;29;20590;-90
2022/09/17 08:33:13;;;;;;;11.75;1.83;;;;;;;;;;4911823;29;20404;-88
2022/09/17 08:35:39;;;;;;;10.45;2.00;;;;;;;;;;4909213;29;20047;-90
2022/09/17 08:38:06;;;;;;;12.52;2.47;;;;;;;;;;4924339;29;20499;-89
2022/09/17 08:40:35;;;;;;;3.85;1.25;;;;;;;;;;4925031;29;20030;-89
2022/09/17 08:43:02;;;;;;;5.97;1.48;;;;;;;;;;4944685;28;20064;-89
2022/09/17 08:45:29;;;;;;;15.68;1.25;;;;;;;;;;4906348;29;20043;-89
2022/09/17 08:47:59;;;;;;;5.28;1.58;;;;;;;;;;4926358;29;20396;-89
2022/09/17 08:50:33;;;;;;;17.55;2.65;;;;;;;;;;4923337;29;20032;-88
2022/09/17 08:53:00;;;;;;;15.55;2.45;;;;;;;;;;4925651;29;20249;-89
2022/09/17 08:55:32;;;;;;;11.98;2.30;;;;;;;;;;4923154;29;20114;-90
2022/09/17 08:58:32;;;;;;;9.88;1.30;;;;;;;;;;4924074;29;20355;-90
2022/09/17 09:01:25;;;;;;;7.03;1.00;;;;;;;;;;4883498;29;20035;-90
2022/09/17 09:03:59;;;;;;;8.68;1.75;;;;;;;;;;4910723;28;20133;-91
2022/09/17 09:06:29;;;;;;;5.65;1.00;;;;;;;;;;4904311;29;20024;-90
2022/09/17 09:09:05;;;;;;;2.80;0.88;;;;;;;;;;4906137;29;20051;-90
2022/09/17 09:11:31;;;;;;;7.78;0.77;;;;;;;;;;4902307;29;20035;-89
2022/09/17 09:14:04;;;;;;;3.17;0.40;;;;;;;;;;4891969;29;20068;-91
2022/09/17 09:16:34;;;;;;;4.72;1.00;;;;;;;;;;4903095;29;20043;-90
2022/09/17 09:19:04;;;;;;;5.78;1.00;;;;;;;;;;4893432;29;20484;-89
2022/09/17 09:21:38;;;;;;;9.00;1.30;;;;;;;;;;4906057;29;20028;-91
2022/09/17 09:24:04;;;;;;;4.97;1.20;;;;;;;;;;4905194;29;20591;-89
2022/09/17 09:26:33;;;;;;;7.70;1.23;;;;;;;;;;4886134;29;20144;-89
2022/09/17 09:29:14;;;;;;;10.38;1.23;;;;;;;;;;4907972;29;20287;-91
2022/09/17 09:31:45;;;;;;;5.70;1.42;;;;;;;;;;4911436;29;20496;-92
2022/09/17 09:34:12;;;;;;;8.55;1.67;;;;;;;;;;4903570;29;20401;-92
2022/09/17 09:36:38;;;;;;;4.95;1.05;;;;;;;;;;4902092;29;20148;-90
2022/09/17 09:39:17;;;;;;;8.77;1.20;;;;;;;;;;4873306;29;20524;-90
2022/09/17 09:41:45;;;;;;;4.75;1.10;;;;;;;;;;4896415;29;20044;-90
2022/09/17 09:44:13;;;;;;;4.78;0.75;;;;;;;;;;4888870;29;20507;-91
2022/09/17 09:46:48;;;;;;;10.95;1.30;;;;;;;;;;4904284;29;20096;-90
2022/09/17 09:49:14;;;;;;;14.65;1.58;;;;;;;;;;4885603;29;20044;-91
2022/09/17 09:51:49;;;;;;;7.18;1.33;;;;;;;;;;4891114;29;20032;-91
2022/09/17 09:54:23;;;;;;;14.30;1.52;;;;;;;;;;4908614;29;20110;-90
2022/09/17 09:56:49;;;;;;;13.60;1.90;;;;;;;;;;4905709;29;20484;-90
2022/09/17 09:59:15;;;;;;;12.43;2.15;;;;;;;;;;4903564;29;20059;-90
2022/09/17 10:01:43;;;;;;;17.88;1.85;;;;;;;;;;4896878;29;20076;-90
2022/09/17 10:04:15;;;;;;;13.98;2.40;;;;;;;;;;4921592;28;20090;-91
2022/09/17 10:06:41;;;;;;;17.25;4.55;;;;;;;;;;4946035;28;20035;-90
2022/09/17 10:09:07;;;;;;;11.00;2.28;;;;;;;;;;4916336;28;20106;-91
2022/09/17 10:11:33;;;;;;;16.75;1.98;;;;;;;;;;4940741;28;20039;-90
2022/09/17 10:14:18;;;;;;;11.98;2.30;;;;;;;;;;4911132;28;20046;-90
2022/09/17 10:16:44;;;;;;;16.65;2.75;;;;;;;;;;4943872;28;20057;-90
2022/09/17 10:19:19;;;;;;;11.05;2.00;;;;;;;;;;4932220;29;20043;-90
2022/09/17 10:21:45;;;;;;;20.27;2.50;;;;;;;;;;4943531;28;20024;-90
2022/09/17 10:24:28;;;;;;;15.13;2.83;;;;;;;;;;4928395;29;20526;-89
2022/09/17 10:27:02;;;;;;;17.52;3.45;;;;;;;;;;4945781;28;20125;-90
2022/09/17 10:29:28;;;;;;;9.10;2.25;;;;;;;;;;4928878;28;20192;-90
2022/09/17 10:31:55;;;;;;;16.13;3.55;;;;;;;;;;4933905;29;20415;-89
2022/09/17 10:34:23;;;;;;;13.00;2.10;;;;;;;;;;4940679;28;20034;-90
2022/09/17 10:36:49;;;;;;;10.93;2.30;;;;;;;;;;4943486;28;20114;-89
2022/09/17 10:39:19;;;;;;;12.30;3.05;;;;;;;;;;4927877;28;20483;-91
2022/09/17 10:42:01;;;;;;;11.98;1.95;;;;;;;;;;4925998;28;20081;-89
2022/09/17 10:44:31;;;;;;;15.55;2.60;;;;;;;;;;4943675;28;20058;-90
2022/09/17 10:47:03;;;;;;;10.40;2.83;;;;;;;;;;4928369;28;20221;-89
2022/09/17 10:49:29;;;;;;;17.70;4.13;;;;;;;;;;4930073;29;20035;-89
2022/09/17 10:52:06;;;;;;;13.68;2.45;;;;;;;;;;4929763;28;20388;-89
2022/09/17 10:54:57;;;;;;;15.43;3.28;;;;;;;;;;4924054;29;20091;-89
2022/09/17 10:57:37;;;;;;;13.88;2.33;;;;;;;;;;4942949;28;20736;-89
2022/09/17 11:00:15;;;;;;;9.48;2.17;;;;;;;;;;4922794;28;20110;-89
2022/09/17 11:02:51;;;;;;;13.25;2.53;;;;;;;;;;4926608;28;20055;-89
2022/09/17 11:05:35;;;;;;;4.80;2.00;;;;;;;;;;4920393;28;20391;-89
2022/09/17 11:08:23;;;;;;;12.43;2.38;;;;;;;;;;4931464;28;20027;-89
2022/09/17 11:10:56;;;;;;;14.43;2.75;;;;;;;;;;4939772;28;20028;-89
2022/09/17 11:13:35;;;;;;;8.30;2.22;;;;;;;;;;4924547;28;20118;-89
2022/09/17 11:16:08;;;;;;;18.00;2.28;;;;;;;;;;4923449;28;20028;-89
2022/09/17 11:18:46;;;;;;;15.30;2.40;;;;;;;;;;4918174;28;20035;-88
2022/09/17 11:21:22;;;;;;;5.65;2.45;;;;;;;;;;4945515;28;20020;-88
2022/09/17 11:23:54;;;;;;;14.80;2.53;;;;;;;;;;4941456;28;20023;-89
2022/09/17 11:26:35;;;;;;;8.52;2.33;;;;;;;;;;4927406;28;20041;-89
2022/09/17 11:29:30;;;;;;;9.68;2.38;;;;;;;;;;4940171;28;20032;-89
2022/09/17 11:31:56;;;;;;;12.27;2.22;;;;;;;;;;4873746;29;20037;-88
2022/09/17 11:34:33;;;;;;;8.00;2.08;;;;;;;;;;4928583;28;20046;-89
2022/09/17 11:37:13;;;;;;;16.02;3.72;;;;;;;;;;4932805;29;20510;-90
2022/09/17 11:39:43;;;;;;;16.98;3.00;;;;;;;;;;4919918;28;20687;-88
2022/09/17 11:42:12;;;;;;;15.48;2.20;;;;;;;;;;4924762;29;20019;-88
2022/09/17 11:44:45;;;;;;;17.95;2.78;;;;;;;;;;4941450;28;20039;-88
2022/09/17 11:47:17;;;;;;;18.95;2.65;;;;;;;;;;4942150;28;20023;-89
2022/09/17 11:49:46;;;;;;;10.43;1.85;;;;;;;;;;4942087;28;20042;-89
2022/09/17 11:52:33;;;;;;;18.00;2.40;;;;;;;;;;4921755;29;20027;-88
2022/09/17 11:54:59;;;;;;;;;;;;;;;;;;4927739;28;20562;-88
2022/09/17 11:57:34;;;;;;;11.30;2.05;;;;;;;;;;4926766;28;19986;-89
2022/09/17 12:00:15;;;;;;;7.80;1.42;;;;;;;;;;4939627;28;20027;-89
2022/09/17 12:02:48;;;;;;;5.25;1.52;;;;;;;;;;4925897;28;20043;-89
2022/09/17 12:05:23;;;;;;;10.13;1.92;;;;;;;;;;4937378;28;20040;-89
2022/09/17 12:08:17;;;;;;;8.07;2.30;;;;;;;;;;4926747;29;20038;-89
2022/09/17 12:10:59;;;;;;;15.63;3.13;;;;;;;;;;4938794;28;20503;-89
2022/09/17 12:13:36;;;;;;;5.82;1.80;;;;;;;;;;4924877;28;20039;-89
2022/09/17 12:16:20;;;;;;;14.32;2.10;;;;;;;;;;4926629;29;21058;-89
2022/09/17 12:18:53;;;;;;;7.05;2.55;;;;;;;;;;4944260;28;20550;-89
2022/09/17 12:21:27;;;;;;;13.07;2.03;;;;;;;;;;4926765;28;20491;-89
2022/09/17 12:24:03;;;;;;;12.77;2.17;;;;;;;;;;4909934;29;20634;-88
2022/09/17 12:26:38;;;;;;;14.93;2.05;;;;;;;;;;4942876;28;20031;-89
2022/09/17 12:29:23;;;;;;;10.23;1.85;;;;;;;;;;4947241;28;20113;-89
2022/09/17 12:32:01;;;;;;;10.20;2.40;;;;;;;;;;4948293;28;20631;-89
2022/09/17 12:34:42;;;;;;;9.65;1.88;;;;;;;;;;4931885;28;20078;-89
2022/09/17 12:37:21;;;;;;;8.23;1.77;;;;;;;;;;4942859;28;20062;-89
2022/09/17 12:39:56;;;;;;;7.15;1.77;;;;;;;;;;4925905;29;20483;-89
2022/09/17 12:42:41;;;;;;;9.50;2.42;;;;;;;;;;4948292;28;20137;-89
2022/09/17 12:45:13;;;;;;;4.40;2.30;;;;;;;;;;4924694;29;20506;-89
2022/09/17 12:48:02;;;;;;;9.45;1.95;;;;;;;;;;4932759;28;20046;-89
2022/09/17 12:50:47;;;;;;;6.22;2.10;;;;;;;;;;4929034;28;20435;-89
2022/09/17 12:53:42;;;;;;;9.73;2.00;;;;;;;;;;4946246;28;20669;-88
2022/09/17 12:56:27;;;;;;;11.50;2.58;;;;;;;;;;4929100;28;20066;-89
2022/09/17 12:58:59;;;;;;;14.63;4.25;;;;;;;;;;4928036;28;20094;-89
2022/09/17 13:01:31;;;;;;;15.27;2.38;;;;;;;;;;4944115;28;20027;-89
2022/09/17 13:04:16;;;;;;;15.95;2.67;;;;;;;;;;4942917;28;20048;-89
2022/09/17 13:06:56;;;;;;;15.13;2.63;;;;;;;;;;4942353;28;20478;-89
2022/09/17 13:09:34;;;;;;;15.57;2.50;;;;;;;;;;4910213;29;20377;-89
2022/09/17 13:12:06;;;;;;;19.73;2.50;;;;;;;;;;4928848;29;20484;-89
2022/09/17 13:14:54;;;;;;;14.57;2.65;;;;;;;;;;4915212;29;20458;-89
2022/09/17 13:17:27;;;;;;;11.57;2.08;;;;;;;;;;4921936;29;20504;-89
2022/09/17 13:20:02;;;;;;;10.38;2.60;;;;;;;;;;4926314;29;20134;-89
2022/09/17 13:22:32;;;;;;;14.02;1.73;;;;;;;;;;4925223;29;20046;-89
2022/09/17 13:25:09;;;;;;;7.97;2.05;;;;;;;;;;4923225;29;20131;-89
2022/09/17 13:27:37;;;;;;;9.07;1.73;;;;;;;;;;4924535;29;20304;-89
2022/09/17 13:30:04;;;;;;;13.00;2.40;;;;;;;;;;4915800;29;20039;-89
2022/09/17 13:32:36;;;;;;;10.73;2.17;;;;;;;;;;4914174;29;20027;-89
2022/09/17 13:35:11;;;;;;;15.95;3.08;;;;;;;;;;4927984;29;20042;-89
2022/09/17 13:37:38;;;;;;;9.23;1.87;;;;;;;;;;4907731;29;20504;-90
2022/09/17 13:40:13;;;;;;;11.07;2.17;;;;;;;;;;4910156;29;20727;-90
2022/09/17 13:42:44;;;;;;;15.07;2.33;;;;;;;;;;4896817;29;20547;-89
2022/09/17 13:45:15;;;;;;;14.00;2.53;;;;;;;;;;4910388;29;20150;-89
2022/09/17 13:48:01;;;;;;;10.35;2.40;;;;;;;;;;4910725;29;20035;-89
2022/09/17 13:50:29;;;;;;;16.30;2.28;;;;;;;;;;4906897;29;20550;-89
2022/09/17 13:52:57;;;;;;;11.40;2.47;;;;;;;;;;4905860;29;20480;-88
2022/09/17 13:55:29;;;;;;;8.85;2.08;;;;;;;;;;4908143;29;20036;-89
2022/09/17 13:57:56;;;;;;;11.20;1.85;;;;;;;;;;4921744;29;20111;-89
2022/09/17 14:00:42;;;;;;;7.43;1.70;;;;;;;;;;4895172;29;20083;-89
2022/09/17 14:03:47;;;;;;;26.88;1.95;;;;;;;;;;4911532;28;20428;-90
2022/09/17 14:06:20;;;;;;;9.25;3.03;;;;;;;;;;4887299;29;20055;-89
2022/09/17 14:08:57;;;;;;;12.73;1.98;;;;;;;;;;4887930;29;20036;-90
2022/09/17 14:11:24;;;;;;;8.65;1.70;;;;;;;;;;4889014;29;20578;-89
2022/09/17 14:13:57;;;;;;;12.77;2.08;;;;;;;;;;4889007;29;20039;-89
2022/09/17 14:19:00;;;;;;;15.37;2.10;;;;;;;;;;4903779;29;20183;-89
2022/09/17 14:21:33;;;;;;;17.35;3.28;;;;;;;;;;4887795;29;20024;-89
2022/09/17 14:24:04;;;;;;;9.98;2.50;;;;;;;;;;4884572;29;20057;-90
2022/09/17 14:26:52;;;;;;;11.38;2.00;;;;;;;;;;4889802;29;20347;-89
2022/09/17 14:29:24;;;;;;;6.07;1.80;;;;;;;;;;4900807;29;20096;-90
2022/09/17 14:31:50;;;;;;;13.13;2.17;;;;;;;;;;4904272;29;20515;-90
2022/09/17 14:34:19;;;;;;;8.20;2.13;;;;;;;;;;4905906;29;20039;-89
2022/09/17 14:36:45;;;;;;;8.38;2.08;;;;;;;;;;4909382;29;20416;-89
2022/09/17 14:39:21;;;;;;;6.88;1.83;;;;;;;;;;4874935;29;20127;-90
2022/09/17 14:41:47;;;;;;;27.17;3.30;;;;;;;;;;4903742;29;20508;-90
2022/09/17 14:44:16;;;;;;;13.25;2.10;;;;;;;;;;4890542;29;20377;-89
2022/09/17 14:46:51;;;;;;;15.90;2.20;;;;;;;;;;4887346;29;20121;-90
2022/09/17 14:49:20;;;;;;;13.07;2.03;;;;;;;;;;4887591;29;20047;-90
2022/09/17 14:51:46;;;;;;;15.18;2.08;;;;;;;;;;4891517;29;20070;-90
2022/09/17 14:54:13;;;;;;;13.38;2.72;;;;;;;;;;4889886;29;20040;-90
2022/09/17 14:56:58;;;;;;;11.93;2.38;;;;;;;;;;4908302;29;20042;-89